Terminal Aerodrome Forecast
Issued by NWS Spokane, WA

Home | Current Version | Previous Version | Text Only | Print | Product List | Glossary On
Versions: 1 2 3 4 5 6 7 8 9 10 11 12 13
000
FTUS46 KOTX 301734
TAFLWS
TAF
KLWS 301734Z 3018/3118 00000KT P6SM SKC
     FM302300 30007KT P6SM VCTS BKN100CB OVC150
     FM310300 26006KT P6SM SCT150
     FM310600 VRB03KT P6SM SKC=

USA.gov is the U.S. government's official web portal to all federal, state and local government web resources and services.